GVBA

Rabil Airport

Airport
ICAO code
GVBA
IATA Code
BVC
Summary
ICAO Region
AFI
ICAO Territory
Location

Rabil, Boa Vista Island, Ilhas de Barlavento

Serving
Rabil
Elevation
69 ft
Coordinates
16° 8' 15" N , 22° 53' 22" W
Metar
Observation
GVBA 081300Z 01005KT 9999 BKN015 29/22 Q1013 NOSIG
Station
Rabil International Airport
Date/Time
2022-08-08 13:00:00
Wind direction
10°
Wind speed
05 kts
Lowest cloud amount
broken clouds
Temperature
29°C
Dew point
22°C
Humidity
66%
QNH
1013 hPa
Weather condition
n/a

Runways

Designator Length Width Surface Rops
3/21 1221 30 ASP Yes/Yes

Airport map

Aerial View

SKYbrary Partners:

Safety knowledge contributed by: